sensor_id;sensor_type;location;lat;lon;timestamp;P1;durP1;ratioP1;P2;durP2;ratioP2
13244;SDS011;6689;53.400;12.486;2023-03-31T00:00:16;9.88;;;4.03;;
13244;SDS011;6689;53.400;12.486;2023-03-31T00:02:44;9.98;;;4.03;;
13244;SDS011;6689;53.400;12.486;2023-03-31T00:05:11;7.88;;;3.70;;
13244;SDS011;6689;53.400;12.486;2023-03-31T00:07:42;15.75;;;4.10;;
13244;SDS011;6689;53.400;12.486;2023-03-31T00:10:10;11.23;;;4.25;;
13244;SDS011;6689;53.400;12.486;2023-03-31T00:12:38;8.52;;;4.20;;
13244;SDS011;6689;53.400;12.486;2023-03-31T00:15:06;9.02;;;4.43;;
13244;SDS011;6689;53.400;12.486;2023-03-31T00:17:33;12.05;;;4.63;;
13244;SDS011;6689;53.400;12.486;2023-03-31T00:20:01;12.70;;;5.38;;
13244;SDS011;6689;53.400;12.486;2023-03-31T00:22:30;13.27;;;5.45;;
13244;SDS011;6689;53.400;12.486;2023-03-31T00:24:57;13.48;;;5.30;;
13244;SDS011;6689;53.400;12.486;2023-03-31T00:27:25;11.07;;;5.10;;
13244;SDS011;6689;53.400;12.486;2023-03-31T00:29:55;13.10;;;5.88;;
13244;SDS011;6689;53.400;12.486;2023-03-31T00:32:22;12.43;;;5.78;;
13244;SDS011;6689;53.400;12.486;2023-03-31T00:34:51;11.40;;;5.32;;
13244;SDS011;6689;53.400;12.486;2023-03-31T00:37:18;10.80;;;6.03;;
13244;SDS011;6689;53.400;12.486;2023-03-31T00:39:45;16.30;;;6.18;;
13244;SDS011;6689;53.400;12.486;2023-03-31T00:42:12;15.50;;;5.68;;
13244;SDS011;6689;53.400;12.486;2023-03-31T00:45:06;15.82;;;6.22;;
13244;SDS011;6689;53.400;12.486;2023-03-31T00:47:50;11.93;;;5.63;;
13244;SDS011;6689;53.400;12.486;2023-03-31T00:50:21;14.77;;;5.45;;
13244;SDS011;6689;53.400;12.486;2023-03-31T00:52:52;13.75;;;5.25;;
13244;SDS011;6689;53.400;12.486;2023-03-31T00:55:23;10.35;;;5.55;;
13244;SDS011;6689;53.400;12.486;2023-03-31T00:57:54;13.65;;;5.40;;
13244;SDS011;6689;53.400;12.486;2023-03-31T01:00:23;12.95;;;4.75;;
13244;SDS011;6689;53.400;12.486;2023-03-31T01:02:52;18.67;;;5.47;;
13244;SDS011;6689;53.400;12.486;2023-03-31T01:05:24;14.57;;;5.43;;
13244;SDS011;6689;53.400;12.486;2023-03-31T01:07:54;11.40;;;5.13;;
13244;SDS011;6689;53.400;12.486;2023-03-31T01:10:23;12.00;;;5.18;;
13244;SDS011;6689;53.400;12.486;2023-03-31T01:12:52;14.35;;;5.65;;
13244;SDS011;6689;53.400;12.486;2023-03-31T01:15:21;11.73;;;5.57;;
13244;SDS011;6689;53.400;12.486;2023-03-31T01:17:50;11.23;;;5.18;;
13244;SDS011;6689;53.400;12.486;2023-03-31T01:20:21;12.35;;;5.82;;
13244;SDS011;6689;53.400;12.486;2023-03-31T01:26:08;16.73;;;6.35;;
13244;SDS011;6689;53.400;12.486;2023-03-31T01:29:03;16.23;;;6.65;;
13244;SDS011;6689;53.400;12.486;2023-03-31T01:34:59;12.45;;;6.53;;
13244;SDS011;6689;53.400;12.486;2023-03-31T01:41:02;14.52;;;5.03;;
13244;SDS011;6689;53.400;12.486;2023-03-31T01:43:53;12.30;;;5.93;;
13244;SDS011;6689;53.400;12.486;2023-03-31T01:46:30;19.50;;;6.68;;
13244;SDS011;6689;53.400;12.486;2023-03-31T01:49:03;10.57;;;5.72;;
13244;SDS011;6689;53.400;12.486;2023-03-31T01:51:43;15.15;;;6.05;;
13244;SDS011;6689;53.400;12.486;2023-03-31T01:54:16;10.65;;;5.88;;
13244;SDS011;6689;53.400;12.486;2023-03-31T01:56:50;16.75;;;6.43;;
13244;SDS011;6689;53.400;12.486;2023-03-31T01:59:24;12.88;;;6.35;;
13244;SDS011;6689;53.400;12.486;2023-03-31T02:01:56;13.20;;;6.18;;
13244;SDS011;6689;53.400;12.486;2023-03-31T02:04:29;17.20;;;6.05;;
13244;SDS011;6689;53.400;12.486;2023-03-31T02:07:02;11.25;;;6.30;;
13244;SDS011;6689;53.400;12.486;2023-03-31T02:09:33;13.05;;;6.43;;
13244;SDS011;6689;53.400;12.486;2023-03-31T02:12:06;12.02;;;6.00;;
13244;SDS011;6689;53.400;12.486;2023-03-31T02:14:37;11.93;;;5.93;;
13244;SDS011;6689;53.400;12.486;2023-03-31T02:17:08;11.10;;;5.25;;
13244;SDS011;6689;53.400;12.486;2023-03-31T02:19:42;16.58;;;6.78;;
13244;SDS011;6689;53.400;12.486;2023-03-31T02:22:12;12.13;;;5.68;;
13244;SDS011;6689;53.400;12.486;2023-03-31T02:24:43;13.25;;;6.13;;
13244;SDS011;6689;53.400;12.486;2023-03-31T02:27:16;12.77;;;5.70;;
13244;SDS011;6689;53.400;12.486;2023-03-31T02:29:47;17.73;;;6.38;;
13244;SDS011;6689;53.400;12.486;2023-03-31T02:32:17;18.58;;;7.13;;
13244;SDS011;6689;53.400;12.486;2023-03-31T02:34:47;13.75;;;6.20;;
13244;SDS011;6689;53.400;12.486;2023-03-31T02:37:18;12.15;;;6.00;;
13244;SDS011;6689;53.400;12.486;2023-03-31T02:39:46;11.27;;;5.55;;
13244;SDS011;6689;53.400;12.486;2023-03-31T02:42:17;13.20;;;6.07;;
13244;SDS011;6689;53.400;12.486;2023-03-31T02:44:45;14.98;;;6.25;;
13244;SDS011;6689;53.400;12.486;2023-03-31T02:47:13;13.45;;;5.90;;
13244;SDS011;6689;53.400;12.486;2023-03-31T02:49:43;10.27;;;5.75;;
13244;SDS011;6689;53.400;12.486;2023-03-31T02:52:26;11.75;;;5.72;;
13244;SDS011;6689;53.400;12.486;2023-03-31T02:58:18;16.80;;;6.20;;
13244;SDS011;6689;53.400;12.486;2023-03-31T03:01:08;15.63;;;6.45;;
13244;SDS011;6689;53.400;12.486;2023-03-31T03:03:47;17.08;;;6.15;;
13244;SDS011;6689;53.400;12.486;2023-03-31T03:06:31;14.73;;;7.07;;
13244;SDS011;6689;53.400;12.486;2023-03-31T03:09:10;13.55;;;5.55;;
13244;SDS011;6689;53.400;12.486;2023-03-31T03:11:50;14.25;;;6.32;;
13244;SDS011;6689;53.400;12.486;2023-03-31T03:14:33;11.57;;;5.50;;
13244;SDS011;6689;53.400;12.486;2023-03-31T03:17:06;15.23;;;6.28;;
13244;SDS011;6689;53.400;12.486;2023-03-31T03:19:37;14.05;;;5.93;;
13244;SDS011;6689;53.400;12.486;2023-03-31T03:22:07;13.23;;;5.63;;
13244;SDS011;6689;53.400;12.486;2023-03-31T03:24:34;12.25;;;6.43;;
13244;SDS011;6689;53.400;12.486;2023-03-31T03:27:04;12.50;;;6.13;;
13244;SDS011;6689;53.400;12.486;2023-03-31T03:29:33;16.85;;;7.05;;
13244;SDS011;6689;53.400;12.486;2023-03-31T03:32:00;14.25;;;6.35;;
13244;SDS011;6689;53.400;12.486;2023-03-31T03:34:27;13.38;;;6.50;;
13244;SDS011;6689;53.400;12.486;2023-03-31T03:36:55;13.85;;;6.38;;
13244;SDS011;6689;53.400;12.486;2023-03-31T03:39:22;14.30;;;6.30;;
13244;SDS011;6689;53.400;12.486;2023-03-31T03:41:49;16.65;;;8.18;;
13244;SDS011;6689;53.400;12.486;2023-03-31T03:44:17;14.45;;;7.13;;
13244;SDS011;6689;53.400;12.486;2023-03-31T03:46:45;15.10;;;7.25;;
13244;SDS011;6689;53.400;12.486;2023-03-31T03:49:13;14.13;;;6.65;;
13244;SDS011;6689;53.400;12.486;2023-03-31T03:51:40;20.73;;;7.03;;
13244;SDS011;6689;53.400;12.486;2023-03-31T03:54:07;15.23;;;7.18;;
13244;SDS011;6689;53.400;12.486;2023-03-31T03:56:34;14.85;;;7.50;;
13244;SDS011;6689;53.400;12.486;2023-03-31T03:59:02;16.80;;;8.25;;
13244;SDS011;6689;53.400;12.486;2023-03-31T04:01:29;16.20;;;7.28;;
13244;SDS011;6689;53.400;12.486;2023-03-31T04:03:58;19.90;;;8.82;;
13244;SDS011;6689;53.400;12.486;2023-03-31T04:06:25;15.57;;;7.15;;
13244;SDS011;6689;53.400;12.486;2023-03-31T04:08:52;17.95;;;6.88;;
13244;SDS011;6689;53.400;12.486;2023-03-31T04:11:20;16.52;;;7.70;;
13244;SDS011;6689;53.400;12.486;2023-03-31T04:13:47;17.00;;;8.18;;
13244;SDS011;6689;53.400;12.486;2023-03-31T04:16:15;16.65;;;7.82;;
13244;SDS011;6689;53.400;12.486;2023-03-31T04:18:42;14.80;;;7.70;;
13244;SDS011;6689;53.400;12.486;2023-03-31T04:21:14;17.70;;;7.38;;
13244;SDS011;6689;53.400;12.486;2023-03-31T04:23:47;18.88;;;8.27;;
13244;SDS011;6689;53.400;12.486;2023-03-31T04:26:15;18.10;;;8.35;;
13244;SDS011;6689;53.400;12.486;2023-03-31T04:28:50;17.98;;;7.38;;
13244;SDS011;6689;53.400;12.486;2023-03-31T04:31:18;19.00;;;7.50;;
13244;SDS011;6689;53.400;12.486;2023-03-31T04:33:49;15.85;;;6.85;;
13244;SDS011;6689;53.400;12.486;2023-03-31T04:36:17;13.52;;;6.95;;
13244;SDS011;6689;53.400;12.486;2023-03-31T04:38:45;17.35;;;7.22;;
13244;SDS011;6689;53.400;12.486;2023-03-31T04:41:14;10.40;;;6.57;;
13244;SDS011;6689;53.400;12.486;2023-03-31T04:43:42;11.77;;;6.97;;
13244;SDS011;6689;53.400;12.486;2023-03-31T04:46:10;12.15;;;6.45;;
13244;SDS011;6689;53.400;12.486;2023-03-31T04:48:37;12.95;;;6.80;;
13244;SDS011;6689;53.400;12.486;2023-03-31T04:51:05;14.63;;;6.60;;
13244;SDS011;6689;53.400;12.486;2023-03-31T04:53:34;15.45;;;7.47;;
13244;SDS011;6689;53.400;12.486;2023-03-31T04:56:02;14.27;;;6.72;;
13244;SDS011;6689;53.400;12.486;2023-03-31T04:58:30;12.57;;;6.78;;
13244;SDS011;6689;53.400;12.486;2023-03-31T05:00:57;12.13;;;6.65;;
13244;SDS011;6689;53.400;12.486;2023-03-31T05:03:26;13.75;;;6.45;;
13244;SDS011;6689;53.400;12.486;2023-03-31T05:05:53;14.20;;;6.68;;
13244;SDS011;6689;53.400;12.486;2023-03-31T05:08:21;17.02;;;6.68;;
13244;SDS011;6689;53.400;12.486;2023-03-31T05:10:49;13.00;;;7.57;;
13244;SDS011;6689;53.400;12.486;2023-03-31T05:13:16;11.80;;;6.07;;
13244;SDS011;6689;53.400;12.486;2023-03-31T05:15:44;11.77;;;6.88;;
13244;SDS011;6689;53.400;12.486;2023-03-31T05:18:14;19.15;;;7.15;;
13244;SDS011;6689;53.400;12.486;2023-03-31T05:20:42;13.75;;;5.40;;
13244;SDS011;6689;53.400;12.486;2023-03-31T05:23:09;15.20;;;6.18;;
13244;SDS011;6689;53.400;12.486;2023-03-31T05:25:36;18.65;;;6.63;;
13244;SDS011;6689;53.400;12.486;2023-03-31T05:28:05;11.25;;;5.45;;
13244;SDS011;6689;53.400;12.486;2023-03-31T05:30:32;12.35;;;5.65;;
13244;SDS011;6689;53.400;12.486;2023-03-31T05:33:01;11.27;;;5.75;;
13244;SDS011;6689;53.400;12.486;2023-03-31T05:35:28;10.88;;;5.30;;
13244;SDS011;6689;53.400;12.486;2023-03-31T05:37:56;11.60;;;5.15;;
13244;SDS011;6689;53.400;12.486;2023-03-31T05:40:23;11.13;;;5.30;;
13244;SDS011;6689;53.400;12.486;2023-03-31T05:42:53;11.40;;;5.07;;
13244;SDS011;6689;53.400;12.486;2023-03-31T05:45:22;12.35;;;5.75;;
13244;SDS011;6689;53.400;12.486;2023-03-31T05:47:49;13.35;;;4.65;;
13244;SDS011;6689;53.400;12.486;2023-03-31T05:50:16;9.05;;;4.32;;
13244;SDS011;6689;53.400;12.486;2023-03-31T05:52:44;12.82;;;4.65;;
13244;SDS011;6689;53.400;12.486;2023-03-31T05:55:11;12.60;;;5.70;;
13244;SDS011;6689;53.400;12.486;2023-03-31T05:57:39;9.77;;;4.40;;
13244;SDS011;6689;53.400;12.486;2023-03-31T06:00:07;8.43;;;3.90;;
13244;SDS011;6689;53.400;12.486;2023-03-31T06:02:37;9.70;;;4.75;;
13244;SDS011;6689;53.400;12.486;2023-03-31T06:05:05;12.48;;;4.07;;
13244;SDS011;6689;53.400;12.486;2023-03-31T06:07:33;11.40;;;4.65;;
13244;SDS011;6689;53.400;12.486;2023-03-31T06:10:00;11.23;;;4.40;;
13244;SDS011;6689;53.400;12.486;2023-03-31T06:12:28;12.68;;;4.97;;
13244;SDS011;6689;53.400;12.486;2023-03-31T06:14:57;10.93;;;4.43;;
13244;SDS011;6689;53.400;12.486;2023-03-31T06:17:25;12.48;;;4.28;;
13244;SDS011;6689;53.400;12.486;2023-03-31T06:19:54;8.57;;;4.60;;
13244;SDS011;6689;53.400;12.486;2023-03-31T06:22:21;7.22;;;3.50;;
13244;SDS011;6689;53.400;12.486;2023-03-31T06:24:48;12.70;;;3.63;;
13244;SDS011;6689;53.400;12.486;2023-03-31T06:27:15;9.32;;;3.85;;
13244;SDS011;6689;53.400;12.486;2023-03-31T06:29:44;10.43;;;4.00;;
13244;SDS011;6689;53.400;12.486;2023-03-31T06:32:11;11.40;;;3.75;;
13244;SDS011;6689;53.400;12.486;2023-03-31T06:34:39;13.27;;;3.85;;
13244;SDS011;6689;53.400;12.486;2023-03-31T06:37:07;7.35;;;4.32;;
13244;SDS011;6689;53.400;12.486;2023-03-31T06:39:35;10.55;;;4.30;;
13244;SDS011;6689;53.400;12.486;2023-03-31T06:42:02;9.07;;;3.60;;
13244;SDS011;6689;53.400;12.486;2023-03-31T06:44:34;10.30;;;4.85;;
13244;SDS011;6689;53.400;12.486;2023-03-31T06:47:01;8.32;;;3.90;;
13244;SDS011;6689;53.400;12.486;2023-03-31T06:49:29;9.57;;;3.60;;
13244;SDS011;6689;53.400;12.486;2023-03-31T06:51:57;11.48;;;4.40;;
13244;SDS011;6689;53.400;12.486;2023-03-31T06:54:26;10.45;;;4.07;;
13244;SDS011;6689;53.400;12.486;2023-03-31T06:56:54;8.02;;;3.97;;
13244;SDS011;6689;53.400;12.486;2023-03-31T06:59:25;7.72;;;3.60;;
13244;SDS011;6689;53.400;12.486;2023-03-31T07:01:52;10.52;;;4.63;;
13244;SDS011;6689;53.400;12.486;2023-03-31T07:04:19;8.75;;;4.03;;
13244;SDS011;6689;53.400;12.486;2023-03-31T07:06:46;7.80;;;3.50;;
13244;SDS011;6689;53.400;12.486;2023-03-31T07:09:16;12.90;;;4.20;;
13244;SDS011;6689;53.400;12.486;2023-03-31T07:11:47;8.48;;;3.97;;
13244;SDS011;6689;53.400;12.486;2023-03-31T07:14:16;7.32;;;3.97;;
13244;SDS011;6689;53.400;12.486;2023-03-31T07:16:44;6.18;;;3.40;;
13244;SDS011;6689;53.400;12.486;2023-03-31T07:19:13;10.10;;;4.22;;
13244;SDS011;6689;53.400;12.486;2023-03-31T07:21:40;7.45;;;3.35;;
13244;SDS011;6689;53.400;12.486;2023-03-31T07:24:08;8.25;;;3.40;;
13244;SDS011;6689;53.400;12.486;2023-03-31T07:26:35;8.75;;;3.10;;
13244;SDS011;6689;53.400;12.486;2023-03-31T07:29:04;7.90;;;2.92;;
13244;SDS011;6689;53.400;12.486;2023-03-31T07:31:31;8.05;;;2.65;;
13244;SDS011;6689;53.400;12.486;2023-03-31T07:34:00;7.35;;;3.10;;
13244;SDS011;6689;53.400;12.486;2023-03-31T07:36:28;8.52;;;3.67;;
13244;SDS011;6689;53.400;12.486;2023-03-31T07:38:56;7.35;;;3.63;;
13244;SDS011;6689;53.400;12.486;2023-03-31T07:41:24;10.35;;;4.15;;
13244;SDS011;6689;53.400;12.486;2023-03-31T07:43:51;10.57;;;3.78;;
13244;SDS011;6689;53.400;12.486;2023-03-31T07:46:21;11.60;;;3.95;;
13244;SDS011;6689;53.400;12.486;2023-03-31T07:48:49;8.63;;;3.78;;
13244;SDS011;6689;53.400;12.486;2023-03-31T07:51:18;5.32;;;3.55;;
13244;SDS011;6689;53.400;12.486;2023-03-31T07:53:47;8.32;;;4.22;;
13244;SDS011;6689;53.400;12.486;2023-03-31T07:56:16;9.68;;;4.18;;
13244;SDS011;6689;53.400;12.486;2023-03-31T07:58:44;9.30;;;3.85;;
13244;SDS011;6689;53.400;12.486;2023-03-31T08:01:12;7.57;;;3.72;;
13244;SDS011;6689;53.400;12.486;2023-03-31T08:03:43;9.70;;;4.15;;
13244;SDS011;6689;53.400;12.486;2023-03-31T08:06:16;8.30;;;4.00;;
13244;SDS011;6689;53.400;12.486;2023-03-31T08:08:45;11.52;;;4.65;;
13244;SDS011;6689;53.400;12.486;2023-03-31T08:11:12;7.18;;;4.13;;
13244;SDS011;6689;53.400;12.486;2023-03-31T08:13:40;10.80;;;3.85;;
13244;SDS011;6689;53.400;12.486;2023-03-31T08:16:10;7.25;;;3.20;;
13244;SDS011;6689;53.400;12.486;2023-03-31T08:18:37;7.53;;;3.47;;
13244;SDS011;6689;53.400;12.486;2023-03-31T08:21:06;6.68;;;3.10;;
13244;SDS011;6689;53.400;12.486;2023-03-31T08:23:37;11.05;;;2.97;;
13244;SDS011;6689;53.400;12.486;2023-03-31T08:26:08;9.10;;;3.38;;
13244;SDS011;6689;53.400;12.486;2023-03-31T08:28:37;8.77;;;3.58;;
13244;SDS011;6689;53.400;12.486;2023-03-31T08:31:07;9.45;;;2.90;;
13244;SDS011;6689;53.400;12.486;2023-03-31T08:33:34;7.75;;;2.97;;
13244;SDS011;6689;53.400;12.486;2023-03-31T08:36:06;8.05;;;2.80;;
13244;SDS011;6689;53.400;12.486;2023-03-31T08:38:36;4.85;;;2.75;;
13244;SDS011;6689;53.400;12.486;2023-03-31T08:41:06;5.28;;;3.13;;
13244;SDS011;6689;53.400;12.486;2023-03-31T08:43:48;9.38;;;2.42;;
13244;SDS011;6689;53.400;12.486;2023-03-31T08:46:16;7.38;;;2.58;;
13244;SDS011;6689;53.400;12.486;2023-03-31T08:48:45;8.57;;;3.40;;
13244;SDS011;6689;53.400;12.486;2023-03-31T08:51:19;8.88;;;2.80;;
13244;SDS011;6689;53.400;12.486;2023-03-31T08:53:50;6.38;;;2.75;;
13244;SDS011;6689;53.400;12.486;2023-03-31T08:56:22;7.60;;;2.40;;
13244;SDS011;6689;53.400;12.486;2023-03-31T08:58:52;9.70;;;3.17;;
13244;SDS011;6689;53.400;12.486;2023-03-31T09:01:22;6.10;;;2.42;;
13244;SDS011;6689;53.400;12.486;2023-03-31T09:06:35;7.38;;;3.00;;
13244;SDS011;6689;53.400;12.486;2023-03-31T09:09:09;6.72;;;2.28;;
13244;SDS011;6689;53.400;12.486;2023-03-31T09:11:41;6.25;;;2.58;;
13244;SDS011;6689;53.400;12.486;2023-03-31T09:14:17;9.10;;;2.00;;
13244;SDS011;6689;53.400;12.486;2023-03-31T09:16:53;6.90;;;2.45;;
13244;SDS011;6689;53.400;12.486;2023-03-31T09:19:29;8.32;;;2.50;;
13244;SDS011;6689;53.400;12.486;2023-03-31T09:22:03;8.93;;;2.47;;
13244;SDS011;6689;53.400;12.486;2023-03-31T09:24:39;7.13;;;2.78;;
13244;SDS011;6689;53.400;12.486;2023-03-31T09:27:18;7.75;;;2.40;;
13244;SDS011;6689;53.400;12.486;2023-03-31T09:29:47;4.75;;;1.98;;
13244;SDS011;6689;53.400;12.486;2023-03-31T09:32:18;8.82;;;3.22;;
13244;SDS011;6689;53.400;12.486;2023-03-31T09:34:46;7.32;;;2.30;;
13244;SDS011;6689;53.400;12.486;2023-03-31T09:37:19;4.95;;;2.13;;
13244;SDS011;6689;53.400;12.486;2023-03-31T09:39:46;8.73;;;2.65;;
13244;SDS011;6689;53.400;12.486;2023-03-31T09:42:13;7.07;;;2.55;;
13244;SDS011;6689;53.400;12.486;2023-03-31T09:44:43;7.25;;;2.45;;
13244;SDS011;6689;53.400;12.486;2023-03-31T09:47:15;9.65;;;2.53;;
13244;SDS011;6689;53.400;12.486;2023-03-31T09:49:46;5.47;;;2.20;;
13244;SDS011;6689;53.400;12.486;2023-03-31T09:52:16;11.23;;;2.70;;
13244;SDS011;6689;53.400;12.486;2023-03-31T09:54:53;10.30;;;2.55;;
13244;SDS011;6689;53.400;12.486;2023-03-31T09:57:24;5.38;;;2.30;;
13244;SDS011;6689;53.400;12.486;2023-03-31T10:00:00;7.28;;;2.25;;
13244;SDS011;6689;53.400;12.486;2023-03-31T10:02:35;6.63;;;2.90;;
13244;SDS011;6689;53.400;12.486;2023-03-31T10:05:07;7.53;;;2.45;;
13244;SDS011;6689;53.400;12.486;2023-03-31T10:10:51;5.97;;;2.53;;
13244;SDS011;6689;53.400;12.486;2023-03-31T10:13:23;9.30;;;2.42;;
13244;SDS011;6689;53.400;12.486;2023-03-31T10:15:53;6.60;;;2.10;;
13244;SDS011;6689;53.400;12.486;2023-03-31T10:18:31;5.67;;;1.87;;
13244;SDS011;6689;53.400;12.486;2023-03-31T10:21:00;6.55;;;2.88;;
13244;SDS011;6689;53.400;12.486;2023-03-31T10:23:30;9.73;;;2.55;;
13244;SDS011;6689;53.400;12.486;2023-03-31T10:25:59;6.85;;;2.40;;
13244;SDS011;6689;53.400;12.486;2023-03-31T10:28:29;7.45;;;2.47;;
13244;SDS011;6689;53.400;12.486;2023-03-31T10:30:58;6.53;;;2.30;;
13244;SDS011;6689;53.400;12.486;2023-03-31T10:33:27;7.63;;;2.42;;
13244;SDS011;6689;53.400;12.486;2023-03-31T10:35:59;10.02;;;2.75;;
13244;SDS011;6689;53.400;12.486;2023-03-31T10:38:33;6.72;;;2.38;;
13244;SDS011;6689;53.400;12.486;2023-03-31T10:41:05;8.60;;;2.92;;
13244;SDS011;6689;53.400;12.486;2023-03-31T10:43:34;9.18;;;3.22;;
13244;SDS011;6689;53.400;12.486;2023-03-31T10:46:03;9.85;;;3.28;;
13244;SDS011;6689;53.400;12.486;2023-03-31T10:48:35;8.15;;;2.92;;
13244;SDS011;6689;53.400;12.486;2023-03-31T10:51:09;8.85;;;3.38;;
13244;SDS011;6689;53.400;12.486;2023-03-31T10:53:42;13.07;;;3.00;;
13244;SDS011;6689;53.400;12.486;2023-03-31T10:56:15;9.88;;;3.03;;
13244;SDS011;6689;53.400;12.486;2023-03-31T10:59:03;8.20;;;2.78;;
13244;SDS011;6689;53.400;12.486;2023-03-31T11:01:51;9.13;;;3.17;;
13244;SDS011;6689;53.400;12.486;2023-03-31T11:07:25;8.23;;;3.30;;
13244;SDS011;6689;53.400;12.486;2023-03-31T11:10:05;10.75;;;3.40;;
13244;SDS011;6689;53.400;12.486;2023-03-31T11:12:46;10.13;;;2.92;;
13244;SDS011;6689;53.400;12.486;2023-03-31T11:15:19;8.63;;;2.80;;
13244;SDS011;6689;53.400;12.486;2023-03-31T11:17:56;8.43;;;2.95;;
13244;SDS011;6689;53.400;12.486;2023-03-31T11:20:40;11.70;;;2.88;;
13244;SDS011;6689;53.400;12.486;2023-03-31T11:23:23;8.50;;;3.38;;
13244;SDS011;6689;53.400;12.486;2023-03-31T11:25:58;10.60;;;2.87;;
13244;SDS011;6689;53.400;12.486;2023-03-31T11:28:31;7.85;;;2.50;;
13244;SDS011;6689;53.400;12.486;2023-03-31T11:31:19;7.15;;;2.50;;
13244;SDS011;6689;53.400;12.486;2023-03-31T11:34:10;11.13;;;2.35;;
13244;SDS011;6689;53.400;12.486;2023-03-31T11:39:50;10.82;;;2.67;;
13244;SDS011;6689;53.400;12.486;2023-03-31T11:42:28;6.50;;;2.30;;
13244;SDS011;6689;53.400;12.486;2023-03-31T11:45:02;8.05;;;2.50;;
13244;SDS011;6689;53.400;12.486;2023-03-31T11:47:36;7.28;;;2.40;;
13244;SDS011;6689;53.400;12.486;2023-03-31T11:50:08;7.32;;;2.33;;
13244;SDS011;6689;53.400;12.486;2023-03-31T11:52:40;5.97;;;2.50;;
13244;SDS011;6689;53.400;12.486;2023-03-31T11:55:11;7.78;;;2.30;;
13244;SDS011;6689;53.400;12.486;2023-03-31T11:57:44;10.50;;;3.38;;
13244;SDS011;6689;53.400;12.486;2023-03-31T12:00:19;6.28;;;2.28;;
13244;SDS011;6689;53.400;12.486;2023-03-31T12:02:50;11.70;;;2.40;;
13244;SDS011;6689;53.400;12.486;2023-03-31T12:05:21;7.15;;;2.42;;
13244;SDS011;6689;53.400;12.486;2023-03-31T12:07:53;8.50;;;2.75;;
13244;SDS011;6689;53.400;12.486;2023-03-31T12:10:28;7.95;;;3.00;;
13244;SDS011;6689;53.400;12.486;2023-03-31T12:13:01;9.07;;;2.90;;
13244;SDS011;6689;53.400;12.486;2023-03-31T12:15:39;7.78;;;3.10;;
13244;SDS011;6689;53.400;12.486;2023-03-31T12:18:11;9.27;;;2.72;;
13244;SDS011;6689;53.400;12.486;2023-03-31T12:20:52;8.70;;;2.65;;
13244;SDS011;6689;53.400;12.486;2023-03-31T12:23:21;7.68;;;2.97;;
13244;SDS011;6689;53.400;12.486;2023-03-31T12:25:53;10.70;;;2.20;;
13244;SDS011;6689;53.400;12.486;2023-03-31T12:28:28;10.73;;;2.65;;
13244;SDS011;6689;53.400;12.486;2023-03-31T12:30:59;11.10;;;2.70;;
13244;SDS011;6689;53.400;12.486;2023-03-31T12:33:29;9.60;;;2.67;;
13244;SDS011;6689;53.400;12.486;2023-03-31T12:36:06;4.18;;;1.77;;
13244;SDS011;6689;53.400;12.486;2023-03-31T12:38:49;7.22;;;2.05;;
13244;SDS011;6689;53.400;12.486;2023-03-31T12:41:34;8.57;;;3.15;;
13244;SDS011;6689;53.400;12.486;2023-03-31T12:52:55;7.50;;;2.40;;
13244;SDS011;6689;53.400;12.486;2023-03-31T12:55:34;8.20;;;2.60;;
13244;SDS011;6689;53.400;12.486;2023-03-31T13:01:10;8.07;;;3.08;;
13244;SDS011;6689;53.400;12.486;2023-03-31T13:03:43;5.00;;;2.50;;
13244;SDS011;6689;53.400;12.486;2023-03-31T13:09:43;6.45;;;2.17;;
13244;SDS011;6689;53.400;12.486;2023-03-31T13:12:18;8.75;;;2.70;;
13244;SDS011;6689;53.400;12.486;2023-03-31T13:14:47;10.25;;;3.20;;
13244;SDS011;6689;53.400;12.486;2023-03-31T13:17:37;8.80;;;2.83;;
13244;SDS011;6689;53.400;12.486;2023-03-31T13:20:15;11.63;;;3.10;;
13244;SDS011;6689;53.400;12.486;2023-03-31T13:25:45;6.53;;;3.00;;
13244;SDS011;6689;53.400;12.486;2023-03-31T13:28:31;11.25;;;2.25;;
13244;SDS011;6689;53.400;12.486;2023-03-31T13:31:05;10.23;;;2.65;;
13244;SDS011;6689;53.400;12.486;2023-03-31T13:33:41;9.98;;;2.53;;
13244;SDS011;6689;53.400;12.486;2023-03-31T13:38:48;8.93;;;2.60;;
13244;SDS011;6689;53.400;12.486;2023-03-31T13:41:29;7.55;;;2.40;;
13244;SDS011;6689;53.400;12.486;2023-03-31T13:50:38;7.18;;;1.90;;
13244;SDS011;6689;53.400;12.486;2023-03-31T13:53:22;8.07;;;1.63;;
13244;SDS011;6689;53.400;12.486;2023-03-31T13:56:08;7.28;;;2.47;;
13244;SDS011;6689;53.400;12.486;2023-03-31T14:01:48;4.70;;;1.75;;
13244;SDS011;6689;53.400;12.486;2023-03-31T14:04:46;7.78;;;2.35;;
13244;SDS011;6689;53.400;12.486;2023-03-31T14:07:45;8.70;;;2.88;;
13244;SDS011;6689;53.400;12.486;2023-03-31T14:10:25;5.68;;;1.77;;
13244;SDS011;6689;53.400;12.486;2023-03-31T14:13:09;5.53;;;2.28;;
13244;SDS011;6689;53.400;12.486;2023-03-31T14:15:41;6.55;;;2.00;;
13244;SDS011;6689;53.400;12.486;2023-03-31T14:18:13;4.93;;;1.80;;
13244;SDS011;6689;53.400;12.486;2023-03-31T14:20:47;9.80;;;2.03;;
13244;SDS011;6689;53.400;12.486;2023-03-31T14:23:35;5.78;;;2.30;;
13244;SDS011;6689;53.400;12.486;2023-03-31T14:26:11;2.90;;;1.70;;
13244;SDS011;6689;53.400;12.486;2023-03-31T14:28:54;6.50;;;2.25;;
13244;SDS011;6689;53.400;12.486;2023-03-31T14:31:36;8.52;;;2.17;;
13244;SDS011;6689;53.400;12.486;2023-03-31T14:34:11;4.80;;;2.05;;
13244;SDS011;6689;53.400;12.486;2023-03-31T14:36:55;5.43;;;1.98;;
13244;SDS011;6689;53.400;12.486;2023-03-31T14:39:27;7.88;;;2.55;;
13244;SDS011;6689;53.400;12.486;2023-03-31T14:41:58;7.20;;;2.53;;
13244;SDS011;6689;53.400;12.486;2023-03-31T14:44:28;4.43;;;1.70;;
13244;SDS011;6689;53.400;12.486;2023-03-31T14:46:56;5.72;;;2.08;;
13244;SDS011;6689;53.400;12.486;2023-03-31T14:49:24;3.83;;;1.67;;
13244;SDS011;6689;53.400;12.486;2023-03-31T14:51:54;4.50;;;2.40;;
13244;SDS011;6689;53.400;12.486;2023-03-31T14:54:26;4.78;;;1.98;;
13244;SDS011;6689;53.400;12.486;2023-03-31T14:57:01;7.28;;;2.00;;
13244;SDS011;6689;53.400;12.486;2023-03-31T14:59:30;4.28;;;1.77;;
13244;SDS011;6689;53.400;12.486;2023-03-31T15:02:02;4.00;;;1.90;;
13244;SDS011;6689;53.400;12.486;2023-03-31T15:04:33;6.55;;;2.13;;
13244;SDS011;6689;53.400;12.486;2023-03-31T15:07:09;3.92;;;1.77;;
13244;SDS011;6689;53.400;12.486;2023-03-31T15:09:42;6.30;;;1.70;;
13244;SDS011;6689;53.400;12.486;2023-03-31T15:12:14;5.10;;;1.63;;
13244;SDS011;6689;53.400;12.486;2023-03-31T15:14:47;7.35;;;2.55;;
13244;SDS011;6689;53.400;12.486;2023-03-31T15:17:20;5.18;;;1.80;;
13244;SDS011;6689;53.400;12.486;2023-03-31T15:19:52;5.70;;;2.25;;
13244;SDS011;6689;53.400;12.486;2023-03-31T15:22:21;6.38;;;2.33;;
13244;SDS011;6689;53.400;12.486;2023-03-31T15:24:51;5.57;;;2.47;;
13244;SDS011;6689;53.400;12.486;2023-03-31T15:27:20;4.85;;;2.20;;
13244;SDS011;6689;53.400;12.486;2023-03-31T15:29:58;5.78;;;2.00;;
13244;SDS011;6689;53.400;12.486;2023-03-31T15:32:27;5.22;;;2.25;;
13244;SDS011;6689;53.400;12.486;2023-03-31T15:34:56;7.13;;;1.70;;
13244;SDS011;6689;53.400;12.486;2023-03-31T15:37:25;4.68;;;2.13;;
13244;SDS011;6689;53.400;12.486;2023-03-31T15:39:58;5.22;;;2.03;;
13244;SDS011;6689;53.400;12.486;2023-03-31T15:42:31;4.50;;;1.43;;
13244;SDS011;6689;53.400;12.486;2023-03-31T15:45:15;3.15;;;1.60;;
13244;SDS011;6689;53.400;12.486;2023-03-31T15:48:08;4.00;;;2.10;;
13244;SDS011;6689;53.400;12.486;2023-03-31T15:50:45;10.20;;;2.03;;
13244;SDS011;6689;53.400;12.486;2023-03-31T15:53:24;5.45;;;1.80;;
13244;SDS011;6689;53.400;12.486;2023-03-31T15:55:58;5.63;;;1.88;;
13244;SDS011;6689;53.400;12.486;2023-03-31T15:58:45;4.72;;;2.03;;
13244;SDS011;6689;53.400;12.486;2023-03-31T16:01:19;6.38;;;1.73;;
13244;SDS011;6689;53.400;12.486;2023-03-31T16:03:50;6.50;;;1.95;;